SKBOSKRG

Guest
Details From SKBO - Eldorado Intl
To SKRG - Jose Maria Cordova
Flight Number -
Tags Routegen Generated
Created
Modified
Stats Distance 116 nm / 215 km
Max Altitude 400 ft / 122 m
Waypoints 7
Social Downloads 0
Likes 0
Share VATSIM

Download

Looking for another format? Having issues loading an existing format? Contact us
Advertisement - Login to hide

Notes

Departing runway 30 SKBO. Arriving runway 17 SKRG.

Route

SKBO +04.76_-074.21 +05.24_-074.67 +05.98_-075.36 +06.02_-075.40 +06.08_-075.42 SKRG

ID Type Via Altitude Latitude Longitude Leg Dist Tot Dist Heading (true) Name
O SKBO APT - 0 ft / 0 m 4.71339˚ -74.15206˚ - 0 nm - -
+04.76_-074.21 LATLON - 400 ft / 122 m 4.75715˚ -74.20989˚ 4 nm 4 nm 307° / 307° -
+05.24_-074.67 LATLON - 400 ft / 122 m 5.24499˚ -74.66844˚ 40 nm 44 nm 317° / 317° -
+05.98_-075.36 LATLON - 400 ft / 122 m 5.97798˚ -75.36455˚ 60 nm 105 nm 317° / 317° -
+06.02_-075.40 LATLON - 400 ft / 122 m 6.02208˚ -75.40226˚ 3 nm 108 nm 320° / 320° -
+06.08_-075.42 LATLON - 400 ft / 122 m 6.07635˚ -75.42253˚ 3 nm 112 nm 340° / 340° -
O SKRG APT - 0 ft / 0 m 6.14871˚ -75.42301˚ 4 nm 116 nm 360° / 360° -

Altitude Profile

Advertisement - Login to hide

SKBO

Details ICAO SKBO (BOG)
Name Bogota - El Dorado Intl
Region Colombia
Timezone America/Bogota (UTC-5.0)
Stats Elevation 8,361 ft / 2,548 m (AMSL)
Location 4.701594° -74.146946°
Runways 2
Magnetic Variation 7.268° W

METAR

SKBO 181200Z 02004KT 9999 MIFG NSC 07/06 A3033

Decode

TAF

Not found

Departure Runways

ID Width Length Bearing (true) Bearing (mag) Surface Threshold Offset Overrun Length
13L 148 ft / 45 m 12,482 ft / 3,804 m 127.21° 134.48° Asphalt 0 ft / 0 m 0 ft / 0 m
13R 148 ft / 45 m 12,494 ft / 3,808 m 127.23° 134.50° Asphalt 0 ft / 0 m 200 ft / 61 m
31L 148 ft / 45 m 12,494 ft / 3,808 m 307.23° 314.50° Asphalt 0 ft / 0 m 190 ft / 58 m
31R 148 ft / 45 m 12,482 ft / 3,804 m 307.21° 314.48° Asphalt 0 ft / 0 m 0 ft / 0 m

SKRG

Details ICAO SKRG (MDE)
Name JOSE MARIA CORDOVA
Region Colombia
Timezone America/Bogota (UTC-5.0)
Stats Elevation 6,955 ft / 2,120 m (AMSL)
Location 6.164532° -75.423119°
Runways 1
Magnetic Variation 6.632° W

METAR

SKRG 181200Z 00000KT 3000 BR BKN006 13/12 A3027 RMK AD OPER IMC

Decode

TAF

Not found

Destination Runways

ID Width Length Bearing (true) Bearing (mag) Surface Threshold Offset Overrun Length
18 148 ft / 45 m 11,547 ft / 3,520 m 179.62° 186.25° Asphalt 0 ft / 0 m 98 ft / 30 m
36 148 ft / 45 m 11,547 ft / 3,520 m 359.62° 6.25° Asphalt 0 ft / 0 m 98 ft / 30 m

Approach Navaids

Runway Type Ident Frequency Range Bearing (true) Bearing (mag) Slope Elevation
36 Localiser IMDE 110.90 MHz 18 nm / 33 km 359.62° 6.25° - 6,955 ft / 2,120 m (AMSL)
36 Glidescope IMDE 110.90 MHz 10 nm / 19 km 359.62° 6.25° 3.00° 6,955 ft / 2,120 m (AMSL)

Popular Alternatives